createdAt,value
2023-01-17T00:01:51.417Z,5.25
2023-01-17T00:04:37.078Z,5.70
2023-01-17T00:07:23.081Z,5.40
2023-01-17T00:09:53.220Z,5.65
2023-01-17T00:12:21.033Z,4.03
2023-01-17T00:14:48.956Z,5.82
2023-01-17T00:17:16.468Z,5.10
2023-01-17T00:20:02.402Z,5.03
2023-01-17T00:22:49.440Z,4.57
2023-01-17T00:25:37.269Z,6.00
2023-01-17T00:28:05.059Z,5.30
2023-01-17T00:30:32.460Z,5.85
2023-01-17T00:32:59.803Z,5.35
2023-01-17T00:35:28.208Z,5.45
2023-01-17T00:38:11.353Z,5.30
2023-01-17T00:40:39.820Z,5.75
2023-01-17T00:43:25.905Z,5.57
2023-01-17T00:46:11.803Z,5.03
2023-01-17T00:48:57.753Z,5.07
2023-01-17T00:51:43.527Z,3.90
2023-01-17T00:54:30.042Z,5.28
2023-01-17T00:57:16.468Z,5.15
2023-01-17T01:00:02.371Z,4.57
2023-01-17T01:02:49.030Z,5.45
2023-01-17T01:05:34.956Z,5.07
2023-01-17T01:08:20.838Z,5.65
2023-01-17T01:11:06.986Z,6.43
2023-01-17T01:13:52.715Z,6.55
2023-01-17T01:16:38.524Z,5.43
2023-01-17T01:19:24.799Z,6.45
2023-01-17T01:22:10.693Z,5.70
2023-01-17T01:24:57.121Z,5.68
2023-01-17T01:27:42.841Z,5.88
2023-01-17T01:30:29.186Z,5.25
2023-01-17T01:33:15.000Z,5.35
2023-01-17T01:35:43.071Z,6.03
2023-01-17T01:38:10.372Z,5.78
2023-01-17T01:40:45.463Z,5.18
2023-01-17T01:43:13.716Z,5.15
2023-01-17T01:45:41.014Z,5.45
2023-01-17T01:48:31.240Z,5.03
2023-01-17T01:50:58.700Z,5.18
2023-01-17T01:53:26.023Z,5.60
2023-01-17T01:55:53.282Z,5.20
2023-01-17T01:58:22.540Z,5.45
2023-01-17T02:00:49.872Z,6.68
2023-01-17T02:03:19.731Z,5.03
2023-01-17T02:05:46.997Z,5.53
2023-01-17T02:08:16.649Z,4.63
2023-01-17T02:10:45.010Z,4.93
2023-01-17T02:13:13.311Z,4.85
2023-01-17T02:16:02.050Z,5.72
2023-01-17T02:18:35.680Z,5.15
2023-01-17T02:21:44.249Z,5.22
2023-01-17T02:24:42.906Z,5.25
2023-01-17T02:27:13.087Z,5.70
2023-01-17T02:30:08.844Z,6.20
2023-01-17T02:32:56.461Z,4.15
2023-01-17T02:35:40.458Z,5.55
2023-01-17T02:38:18.728Z,5.03
2023-01-17T02:40:55.295Z,5.32
2023-01-17T02:43:23.231Z,6.82
2023-01-17T02:45:50.601Z,6.40
2023-01-17T02:48:20.855Z,5.72
2023-01-17T02:50:57.475Z,7.18
2023-01-17T02:53:43.840Z,7.05
2023-01-17T02:56:44.739Z,8.85
2023-01-17T02:59:30.275Z,8.98
2023-01-17T03:02:36.288Z,8.57
2023-01-17T03:05:10.823Z,7.25
2023-01-17T03:07:39.998Z,7.32
2023-01-17T03:10:07.581Z,7.80
2023-01-17T03:12:35.889Z,8.63
2023-01-17T03:15:03.677Z,8.10
2023-01-17T03:17:32.587Z,7.45
2023-01-17T03:20:00.018Z,7.22
2023-01-17T03:22:27.243Z,7.95
2023-01-17T03:24:54.594Z,7.82
2023-01-17T03:27:21.905Z,9.35
2023-01-17T03:29:49.133Z,10.52
2023-01-17T03:32:16.368Z,10.13
2023-01-17T03:34:43.661Z,8.25
2023-01-17T03:37:10.953Z,9.30
2023-01-17T03:39:38.247Z,9.65
2023-01-17T03:42:05.534Z,8.45
2023-01-17T03:44:34.447Z,7.75
2023-01-17T03:47:01.743Z,7.68
2023-01-17T03:49:31.553Z,6.75
2023-01-17T03:51:58.776Z,7.35
2023-01-17T03:54:26.169Z,7.90
2023-01-17T03:56:54.701Z,8.13
2023-01-17T03:59:22.527Z,7.18
2023-01-17T04:01:49.957Z,8.40
2023-01-17T04:04:17.248Z,7.43
2023-01-17T04:06:44.890Z,7.38
2023-01-17T04:09:12.177Z,8.45
2023-01-17T04:11:39.561Z,8.55
2023-01-17T04:14:06.770Z,7.97
2023-01-17T04:16:34.039Z,8.63
2023-01-17T04:19:01.285Z,8.80
2023-01-17T04:21:28.546Z,8.82
2023-01-17T04:23:55.798Z,7.70
2023-01-17T04:26:23.039Z,7.68
2023-01-17T04:28:50.472Z,7.93
2023-01-17T04:31:17.810Z,8.48
2023-01-17T04:33:45.628Z,9.23
2023-01-17T04:36:12.847Z,7.97
2023-01-17T04:38:40.095Z,8.73
2023-01-17T04:41:10.930Z,7.70
2023-01-17T04:43:38.255Z,8.07
2023-01-17T04:46:09.995Z,8.75
2023-01-17T04:48:37.399Z,8.05
2023-01-17T04:51:05.103Z,8.40
2023-01-17T04:53:32.686Z,8.57
2023-01-17T04:55:59.911Z,8.77
2023-01-17T04:58:27.744Z,7.93
2023-01-17T05:00:55.179Z,9.00
2023-01-17T05:03:22.866Z,9.05
2023-01-17T05:05:50.094Z,9.02
2023-01-17T05:08:17.766Z,8.45
2023-01-17T05:10:46.114Z,9.50
2023-01-17T05:13:13.449Z,8.48
2023-01-17T05:15:40.752Z,7.88
2023-01-17T05:18:12.228Z,8.52
2023-01-17T05:23:06.611Z,7.30
2023-01-17T05:25:34.165Z,7.43
2023-01-17T05:28:01.600Z,8.75
2023-01-17T05:30:32.237Z,8.70
2023-01-17T05:32:59.492Z,8.73
2023-01-17T05:35:29.296Z,8.38
2023-01-17T05:37:56.608Z,8.25
2023-01-17T05:40:26.258Z,7.47
2023-01-17T05:42:54.570Z,7.47
2023-01-17T05:45:22.994Z,7.97
2023-01-17T05:47:51.428Z,8.85
2023-01-17T05:50:25.787Z,8.45
2023-01-17T05:52:54.680Z,7.93
2023-01-17T05:55:22.256Z,8.18
2023-01-17T05:57:50.984Z,8.52
2023-01-17T06:00:18.741Z,8.63
2023-01-17T06:02:46.856Z,7.03
2023-01-17T06:05:17.579Z,8.57
2023-01-17T06:07:45.487Z,8.15
2023-01-17T06:10:17.335Z,7.82
2023-01-17T06:12:44.916Z,8.07
2023-01-17T06:15:14.022Z,8.05
2023-01-17T06:17:42.225Z,9.18
2023-01-17T06:20:10.834Z,8.57
2023-01-17T06:22:38.180Z,9.02
2023-01-17T06:25:05.743Z,8.40
2023-01-17T06:27:33.171Z,10.40
2023-01-17T06:30:02.003Z,9.18
2023-01-17T06:32:30.090Z,8.57
2023-01-17T06:34:57.396Z,9.48
2023-01-17T06:37:24.859Z,9.57
2023-01-17T06:39:52.120Z,8.25
2023-01-17T06:42:19.309Z,8.23
2023-01-17T06:44:46.536Z,7.88
2023-01-17T06:47:13.880Z,8.43
2023-01-17T06:49:41.403Z,8.70
2023-01-17T06:52:08.625Z,8.95
2023-01-17T06:54:36.398Z,8.68
2023-01-17T06:57:03.944Z,8.65
2023-01-17T06:59:31.194Z,9.15
2023-01-17T07:01:58.474Z,9.38
2023-01-17T07:04:25.745Z,8.18
2023-01-17T07:06:52.964Z,8.15
2023-01-17T07:09:20.234Z,9.52
2023-01-17T07:11:47.611Z,8.88
2023-01-17T07:14:15.328Z,10.63
2023-01-17T07:16:46.047Z,9.65
2023-01-17T07:19:13.407Z,11.23
2023-01-17T07:21:41.010Z,10.15
2023-01-17T07:24:09.159Z,9.45
2023-01-17T07:26:38.027Z,10.07
2023-01-17T07:29:05.414Z,10.27
2023-01-17T07:31:36.866Z,9.38
2023-01-17T07:34:04.435Z,10.30
2023-01-17T07:36:31.689Z,10.48
2023-01-17T07:38:58.978Z,9.88
2023-01-17T07:41:26.241Z,10.40
2023-01-17T07:43:56.204Z,10.07
2023-01-17T07:46:23.737Z,10.77
2023-01-17T07:48:51.517Z,11.25
2023-01-17T07:51:18.781Z,9.93
2023-01-17T07:53:45.968Z,10.45
2023-01-17T07:56:13.776Z,10.02
2023-01-17T07:58:41.290Z,10.88
2023-01-17T08:01:10.245Z,9.55
2023-01-17T08:03:40.181Z,9.98
2023-01-17T08:06:21.184Z,10.25
2023-01-17T08:08:50.854Z,11.55
2023-01-17T08:11:18.378Z,10.82
2023-01-17T08:13:45.933Z,10.75
2023-01-17T08:16:13.379Z,10.27
2023-01-17T08:18:40.712Z,10.30
2023-01-17T08:21:14.787Z,12.02
2023-01-17T08:23:42.010Z,11.18
2023-01-17T08:26:09.364Z,10.40
2023-01-17T08:28:36.785Z,10.63
2023-01-17T08:31:10.175Z,11.95
2023-01-17T08:33:37.496Z,11.50
2023-01-17T08:36:05.638Z,11.32
2023-01-17T08:38:32.958Z,11.82
2023-01-17T08:41:01.610Z,10.88
2023-01-17T08:43:28.996Z,11.27
2023-01-17T08:45:56.440Z,11.98
2023-01-17T08:48:24.198Z,12.00
2023-01-17T08:50:51.406Z,11.15
2023-01-17T08:53:21.586Z,11.77
2023-01-17T08:55:48.801Z,11.20
2023-01-17T08:58:16.014Z,11.75
2023-01-17T09:00:43.341Z,12.00
2023-01-17T09:03:14.477Z,12.15
2023-01-17T09:05:41.959Z,12.25
2023-01-17T09:08:09.209Z,12.57
2023-01-17T09:10:37.089Z,12.30
2023-01-17T09:13:06.751Z,11.73
2023-01-17T09:15:33.968Z,11.50
2023-01-17T09:18:03.637Z,12.45
2023-01-17T09:20:31.737Z,13.30
2023-01-17T09:22:59.028Z,11.30
2023-01-17T09:25:26.892Z,11.63
2023-01-17T09:27:54.140Z,12.18
2023-01-17T09:30:21.899Z,12.35
2023-01-17T09:32:53.655Z,12.60
2023-01-17T09:35:21.172Z,11.80
2023-01-17T09:37:51.694Z,12.68
2023-01-17T09:40:21.190Z,13.03
2023-01-17T09:42:53.374Z,12.98
2023-01-17T09:45:21.053Z,11.88
2023-01-17T09:47:52.627Z,12.93
2023-01-17T09:50:28.801Z,12.32
2023-01-17T09:53:03.520Z,12.13
2023-01-17T09:56:06.175Z,12.20
2023-01-17T09:59:08.578Z,13.10
2023-01-17T10:01:43.011Z,12.23
2023-01-17T10:04:51.344Z,12.68
2023-01-17T10:07:44.739Z,13.20
2023-01-17T10:10:24.447Z,12.55
2023-01-17T10:12:58.011Z,12.43
2023-01-17T10:15:42.112Z,14.10
2023-01-17T10:18:30.817Z,14.20
2023-01-17T10:21:01.431Z,12.85
2023-01-17T10:24:03.844Z,12.95
2023-01-17T10:26:31.348Z,12.40
2023-01-17T10:29:01.280Z,12.00
2023-01-17T10:31:40.846Z,11.98
2023-01-17T10:34:15.341Z,14.13
2023-01-17T10:36:44.952Z,14.32
2023-01-17T10:39:22.168Z,13.65
2023-01-17T10:42:16.614Z,13.40
2023-01-17T10:45:05.932Z,13.70
2023-01-17T10:47:36.698Z,15.10
2023-01-17T10:50:05.203Z,14.75
2023-01-17T10:53:08.043Z,15.05
2023-01-17T10:55:47.458Z,14.93
2023-01-17T10:58:14.699Z,14.82
2023-01-17T11:00:49.504Z,13.70
2023-01-17T11:03:18.224Z,15.75
2023-01-17T11:05:45.577Z,14.43
2023-01-17T11:08:14.387Z,13.68
2023-01-17T11:10:42.872Z,14.38
2023-01-17T11:13:19.407Z,13.95
2023-01-17T11:15:51.544Z,13.82
2023-01-17T11:18:19.905Z,15.32
2023-01-17T11:20:48.087Z,14.38
2023-01-17T11:23:20.966Z,14.52
2023-01-17T11:25:52.491Z,14.07
2023-01-17T11:28:30.822Z,16.73
2023-01-17T11:31:07.828Z,15.68
2023-01-17T11:33:45.808Z,15.80
2023-01-17T11:36:30.063Z,14.88
2023-01-17T11:39:21.609Z,14.98
2023-01-17T11:41:48.911Z,15.23
2023-01-17T11:44:30.449Z,15.25
2023-01-17T11:47:13.156Z,16.00
2023-01-17T11:49:41.155Z,16.02
2023-01-17T11:52:09.745Z,15.23
2023-01-17T11:54:42.483Z,15.32
2023-01-17T11:57:36.135Z,16.35
2023-01-17T12:00:28.641Z,16.65
2023-01-17T12:03:18.928Z,15.27
2023-01-17T12:06:07.952Z,15.93
2023-01-17T12:08:52.346Z,15.20
2023-01-17T12:11:38.608Z,15.02
2023-01-17T12:14:21.842Z,15.15
2023-01-17T12:17:11.614Z,17.15
2023-01-17T12:20:05.428Z,15.82
2023-01-17T12:23:02.353Z,15.55
2023-01-17T12:25:54.517Z,16.20
2023-01-17T12:28:37.155Z,17.60
2023-01-17T12:31:33.548Z,17.63
2023-01-17T12:34:04.340Z,16.85
2023-01-17T12:36:39.162Z,17.30
2023-01-17T12:39:08.026Z,16.90
2023-01-17T12:41:49.906Z,16.08
2023-01-17T12:44:17.266Z,16.85
2023-01-17T12:46:49.438Z,16.88
2023-01-17T12:49:31.864Z,16.30
2023-01-17T12:52:25.992Z,16.05
2023-01-17T12:54:57.316Z,15.90
2023-01-17T12:57:33.897Z,17.38
2023-01-17T13:00:08.871Z,14.88
2023-01-17T13:02:54.904Z,14.98
2023-01-17T13:05:42.456Z,15.60
2023-01-17T13:08:21.535Z,17.48
2023-01-17T13:10:52.172Z,16.45
2023-01-17T13:13:24.247Z,15.50
2023-01-17T13:15:57.966Z,15.30
2023-01-17T13:18:27.072Z,17.75
2023-01-17T13:21:16.209Z,16.80
2023-01-17T13:24:00.193Z,18.00
2023-01-17T13:26:43.702Z,17.83
2023-01-17T13:29:16.878Z,18.27
2023-01-17T13:31:49.343Z,18.10
2023-01-17T13:34:29.875Z,17.65
2023-01-17T13:37:23.167Z,16.83
2023-01-17T13:40:10.583Z,18.00
2023-01-17T13:42:55.260Z,17.60
2023-01-17T13:45:27.707Z,17.10
2023-01-17T13:48:22.701Z,14.93
2023-01-17T13:50:53.008Z,17.08
2023-01-17T13:53:28.977Z,16.83
2023-01-17T13:56:19.492Z,17.13
2023-01-17T13:58:50.431Z,16.58
2023-01-17T14:01:22.199Z,18.33
2023-01-17T14:03:49.911Z,16.50
2023-01-17T14:06:36.183Z,17.48
2023-01-17T14:09:07.753Z,16.60
2023-01-17T14:14:43.900Z,16.23
2023-01-17T14:17:23.619Z,16.95
2023-01-17T14:19:55.982Z,15.65
2023-01-17T14:22:24.604Z,16.48
2023-01-17T14:25:03.913Z,17.60
2023-01-17T14:27:34.653Z,17.45
2023-01-17T14:30:04.837Z,15.65
2023-01-17T14:32:33.618Z,18.35
2023-01-17T14:35:01.006Z,16.48
2023-01-17T14:37:30.706Z,16.77
2023-01-17T14:39:59.127Z,19.17
2023-01-17T14:42:27.892Z,17.55
2023-01-17T14:45:03.344Z,17.50
2023-01-17T14:47:32.551Z,17.67
2023-01-17T14:50:39.338Z,17.33
2023-01-17T14:53:08.395Z,15.68
2023-01-17T14:55:35.824Z,17.15
2023-01-17T14:58:03.100Z,17.55
2023-01-17T15:00:30.793Z,18.27
2023-01-17T15:02:59.260Z,16.75
2023-01-17T15:05:27.461Z,17.50
2023-01-17T15:07:55.443Z,16.17
2023-01-17T15:10:25.621Z,17.15
2023-01-17T15:12:52.973Z,17.55
2023-01-17T15:15:39.788Z,18.50
2023-01-17T15:18:08.219Z,17.33
2023-01-17T15:20:35.974Z,17.10
2023-01-17T15:23:03.294Z,17.80
2023-01-17T15:25:30.657Z,18.85
2023-01-17T15:27:57.915Z,18.83
2023-01-17T15:30:25.826Z,17.55
2023-01-17T15:32:53.083Z,17.60
2023-01-17T15:35:20.636Z,19.75
2023-01-17T15:37:52.045Z,18.73
2023-01-17T15:40:20.257Z,19.30
2023-01-17T15:42:50.837Z,19.48
2023-01-17T15:45:22.350Z,18.05
2023-01-17T15:47:50.961Z,16.77
2023-01-17T15:50:26.521Z,18.98
2023-01-17T15:52:58.611Z,21.33
2023-01-17T15:55:33.101Z,18.92
2023-01-17T15:58:00.452Z,19.30
2023-01-17T16:00:41.890Z,20.65
2023-01-17T16:05:57.895Z,17.15
2023-01-17T16:08:31.454Z,19.30
2023-01-17T16:11:03.241Z,16.55
2023-01-17T16:13:31.560Z,18.10
2023-01-17T16:16:15.625Z,18.48
2023-01-17T16:18:43.090Z,18.83
2023-01-17T16:21:15.652Z,18.05
2023-01-17T16:23:42.925Z,18.42
2023-01-17T16:26:10.973Z,17.70
2023-01-17T16:28:38.325Z,15.70
2023-01-17T16:31:05.741Z,19.75
2023-01-17T16:33:33.361Z,17.77
2023-01-17T16:36:00.918Z,18.45
2023-01-17T16:38:28.393Z,17.35
2023-01-17T16:40:56.116Z,17.63
2023-01-17T16:43:23.866Z,18.08
2023-01-17T16:45:53.257Z,17.35
2023-01-17T16:48:21.026Z,18.25
2023-01-17T16:50:50.865Z,18.40
2023-01-17T16:53:24.351Z,17.30
2023-01-17T16:55:57.796Z,19.60
2023-01-17T16:58:25.088Z,18.23
2023-01-17T17:00:52.485Z,18.92
2023-01-17T17:03:20.705Z,17.83
2023-01-17T17:05:55.919Z,18.48
2023-01-17T17:08:24.087Z,19.33
2023-01-17T17:10:51.849Z,18.38
2023-01-17T17:13:19.625Z,19.90
2023-01-17T17:15:49.354Z,18.13
2023-01-17T17:18:17.609Z,17.23
2023-01-17T17:20:45.221Z,18.48
2023-01-17T17:23:12.503Z,16.02
2023-01-17T17:25:40.216Z,19.08
2023-01-17T17:28:09.812Z,18.60
2023-01-17T17:30:37.041Z,18.98
2023-01-17T17:33:04.847Z,16.92
2023-01-17T17:35:35.360Z,16.73
2023-01-17T17:38:02.659Z,17.70
2023-01-17T17:40:29.929Z,16.88
2023-01-17T17:42:57.138Z,17.92
2023-01-17T17:45:24.403Z,18.02
2023-01-17T17:47:52.237Z,16.65
2023-01-17T17:50:19.742Z,16.40
2023-01-17T17:52:48.197Z,17.80
2023-01-17T17:55:19.709Z,17.55
2023-01-17T17:57:47.247Z,18.35
2023-01-17T18:00:14.759Z,19.75
2023-01-17T18:02:44.977Z,17.05
2023-01-17T18:05:12.212Z,16.60
2023-01-17T18:07:39.623Z,17.75
2023-01-17T18:10:07.570Z,17.80
2023-01-17T18:12:35.329Z,18.05
2023-01-17T18:15:03.340Z,19.23
2023-01-17T18:17:30.943Z,17.67
2023-01-17T18:19:58.261Z,17.98
2023-01-17T18:22:28.531Z,16.17
2023-01-17T18:24:55.806Z,16.50
2023-01-17T18:27:23.163Z,16.45
2023-01-17T18:29:51.352Z,15.68
2023-01-17T18:32:18.581Z,17.15
2023-01-17T18:34:45.934Z,16.80
2023-01-17T18:37:14.360Z,17.67
2023-01-17T18:39:42.713Z,16.23
2023-01-17T18:42:12.949Z,16.70
2023-01-17T18:44:40.469Z,17.15
2023-01-17T18:47:07.833Z,16.75
2023-01-17T18:49:35.455Z,15.27
2023-01-17T18:52:02.850Z,14.77
2023-01-17T18:54:31.951Z,14.88
2023-01-17T18:56:59.340Z,15.00
2023-01-17T18:59:28.599Z,14.32
2023-01-17T19:01:56.030Z,15.32
2023-01-17T19:04:23.333Z,15.30
2023-01-17T19:06:50.746Z,15.25
2023-01-17T19:09:18.024Z,15.45
2023-01-17T19:11:47.422Z,15.50
2023-01-17T19:14:15.718Z,14.38
2023-01-17T19:16:43.575Z,14.60
2023-01-17T19:19:13.879Z,14.88
2023-01-17T19:21:41.116Z,15.82
2023-01-17T19:24:09.649Z,16.08
2023-01-17T19:26:37.339Z,15.15
2023-01-17T19:29:05.327Z,16.17
2023-01-17T19:31:35.710Z,15.45
2023-01-17T19:34:03.227Z,15.98
2023-01-17T19:36:37.434Z,15.23
2023-01-17T19:39:06.711Z,15.13
2023-01-17T19:41:36.024Z,16.52
2023-01-17T19:44:05.144Z,15.32
2023-01-17T19:46:32.652Z,13.93
2023-01-17T19:49:00.126Z,16.58
2023-01-17T19:51:28.705Z,15.90
2023-01-17T19:53:56.176Z,17.17
2023-01-17T19:56:26.004Z,17.52
2023-01-17T19:58:53.509Z,15.50
2023-01-17T20:01:24.061Z,16.20
2023-01-17T20:03:52.154Z,17.60
2023-01-17T20:06:21.326Z,16.70
2023-01-17T20:08:48.895Z,15.70
2023-01-17T20:11:19.217Z,16.20
2023-01-17T20:13:48.547Z,17.42
2023-01-17T20:16:16.152Z,16.25
2023-01-17T20:18:43.889Z,17.33
2023-01-17T20:21:18.399Z,15.48
2023-01-17T20:23:47.124Z,15.88
2023-01-17T20:26:15.326Z,16.00
2023-01-17T20:28:43.889Z,17.05
2023-01-17T20:31:14.943Z,15.73
2023-01-17T20:33:43.179Z,16.80
2023-01-17T20:36:12.902Z,15.73
2023-01-17T20:38:46.079Z,15.48
2023-01-17T20:41:21.836Z,15.50
2023-01-17T20:43:53.190Z,17.38
2023-01-17T20:46:21.349Z,15.27
2023-01-17T20:48:54.088Z,15.43
2023-01-17T20:51:22.635Z,16.08
2023-01-17T20:53:55.983Z,14.77
2023-01-17T20:56:23.838Z,15.27
2023-01-17T20:58:52.063Z,15.90
2023-01-17T21:01:20.780Z,15.10
2023-01-17T21:03:51.193Z,16.02
2023-01-17T21:06:19.338Z,15.50
2023-01-17T21:08:46.786Z,16.73
2023-01-17T21:11:16.888Z,15.90
2023-01-17T21:13:44.219Z,16.63
2023-01-17T21:16:12.799Z,15.75
2023-01-17T21:18:40.187Z,16.70
2023-01-17T21:21:12.075Z,16.38
2023-01-17T21:23:40.546Z,16.98
2023-01-17T21:26:09.257Z,14.68
2023-01-17T21:28:39.813Z,15.75
2023-01-17T21:31:18.126Z,15.60
2023-01-17T21:33:45.653Z,16.77
2023-01-17T21:36:13.195Z,16.13
2023-01-17T21:38:40.452Z,17.10
2023-01-17T21:41:07.701Z,16.17
2023-01-17T21:43:35.260Z,15.35
2023-01-17T21:46:03.554Z,16.10
2023-01-17T21:48:31.568Z,16.98
2023-01-17T21:51:05.882Z,16.55
2023-01-17T21:53:35.166Z,15.30
2023-01-17T21:56:21.615Z,14.80
2023-01-17T21:58:53.507Z,16.33
2023-01-17T22:01:22.554Z,16.40
2023-01-17T22:03:59.860Z,15.90
2023-01-17T22:06:31.867Z,16.42
2023-01-17T22:08:59.270Z,15.65
2023-01-17T22:11:26.945Z,16.50
2023-01-17T22:13:54.254Z,16.30
2023-01-17T22:16:23.649Z,15.63
2023-01-17T22:18:51.049Z,15.02
2023-01-17T22:21:19.812Z,14.68
2023-01-17T22:23:49.023Z,15.07
2023-01-17T22:26:16.400Z,13.85
2023-01-17T22:28:43.791Z,14.02
2023-01-17T22:31:16.369Z,13.50
2023-01-17T22:33:44.677Z,15.45
2023-01-17T22:36:15.356Z,14.93
2023-01-17T22:38:42.834Z,17.30
2023-01-17T22:41:13.103Z,15.55
2023-01-17T22:43:44.710Z,14.83
2023-01-17T22:46:13.626Z,14.98
2023-01-17T22:48:41.015Z,15.35
2023-01-17T22:51:09.858Z,16.35
2023-01-17T22:53:41.513Z,15.30
2023-01-17T22:56:13.522Z,14.75
2023-01-17T22:58:44.691Z,14.18
2023-01-17T23:01:13.772Z,14.93
2023-01-17T23:03:41.317Z,16.00
2023-01-17T23:06:09.734Z,14.40
2023-01-17T23:08:37.779Z,15.68
2023-01-17T23:11:39.184Z,16.13
2023-01-17T23:14:22.783Z,14.32
2023-01-17T23:17:18.633Z,15.80
2023-01-17T23:19:47.929Z,16.15
2023-01-17T23:22:19.378Z,16.27
2023-01-17T23:25:00.313Z,14.30
2023-01-17T23:27:46.414Z,14.45
2023-01-17T23:30:15.749Z,15.05
2023-01-17T23:32:56.807Z,14.43
2023-01-17T23:38:10.841Z,15.13
2023-01-17T23:40:38.943Z,14.38
2023-01-17T23:43:24.420Z,15.73
2023-01-17T23:45:52.306Z,14.70
2023-01-17T23:48:19.985Z,15.05
2023-01-17T23:50:48.027Z,15.32
2023-01-17T23:53:22.252Z,15.43
2023-01-17T23:55:51.714Z,15.45
2023-01-17T23:58:19.428Z,14.48
